Airfield :
LOGIN :

Register | Disclaimer

   EN    FR    IT 

 










Legend :    VFR   Marginal VFR   IFR   Intensive IFR   Very Intensive IFR
Visi :
Ceiling :
>= 8 km
>= 3000ft
5 to 8 km
1000 to 3000 ft
1500m to 5 km
500 to 1000 ft
800 to 1500m
200 to 500 ft
< 800m
< 200 ft
Symbols :   Thunderstorms  Fog  Heavy snow  Heavy precipitations  Wind > 20 kt
SIGMETs :     Misc.  Thunderstorms  Icing  Turbulence  Mountain Waves  Volcanic Ashes







- Airport Elevation : 464 ft
- IATA code : EVX
- Download approach charts


LFOE - Evreux

CURRENT METAR :
  • 291300Z AUTO 27009KT 240V310 CAVOK 25/16 Q1013

EXPIRED METARs :
  • 291230Z AUTO 28011KT CAVOK 25/17 Q1014
  • 291200Z AUTO 28012KT 240V300 CAVOK 25/15 Q1014
  • 291130Z AUTO 28011KT 250V310 CAVOK 25/17 Q1014
  • 291100Z AUTO 24012KT 210V280 9999 FEW037 BKN096 BKN120 25/17 Q1014
  • 291030Z AUTO 27009KT 240V300 9999 SCT037 BKN084 BKN100 26/17 Q1014

TAF TAF LFOE
Valid from the 29 at 09:00 until the 30 at 09:00 UTC


290800Z 2909/3009 22010KT CAVOK
BECMG 2910/2912 BKN040TCU
TEMPO 2912/2920 VRB20G30KT 4000 TSRA SCT010 BKN035CB
PROB40
TEMPO 2915/2918 VRB20G35KT 2000 TSRAGR SCT008 BKN030CB
BECMG 2921/2923 31010KT BKN010
No reported NOTAMs for that airfield.



MET'MAP, your aeronautical weather chart ! - Copyright ORBIFLY December 2007 - Disclaimer

ORBIFLY MET'MAP TEAM :

Programming & Development : Alexandra Zaïnal
Concept & Development : Baudouin d'Aumeries
Co-Development & Prog : Marc-Olivier Méhu
Technical & hardware support : Manuel Goepfert

Contact : metmap@orbifly.com




SOURCES & CREDITS :

   NOAA